createdAt,value
2017-12-15T00:00:13.673Z,98792.56
2017-12-15T00:02:42.762Z,98795.25
2017-12-15T00:05:11.481Z,98785.80
2017-12-15T00:07:40.980Z,98774.10
2017-12-15T00:10:09.801Z,98762.83
2017-12-15T00:12:38.160Z,98759.36
2017-12-15T00:15:06.508Z,98755.02
2017-12-15T00:17:35.616Z,98752.42
2017-12-15T00:20:04.364Z,98747.22
2017-12-15T00:22:32.720Z,98748.50
2017-12-15T00:25:01.076Z,98744.15
2017-12-15T00:27:29.400Z,98741.53
2017-12-15T00:29:57.757Z,98738.44
2017-12-15T00:32:26.093Z,98741.02
2017-12-15T00:34:55.609Z,98736.21
2017-12-15T00:37:23.951Z,98732.31
2017-12-15T00:39:53.044Z,98729.27
2017-12-15T00:42:22.172Z,98729.29
2017-12-15T00:44:52.001Z,98730.61
2017-12-15T00:47:21.504Z,98730.16
2017-12-15T00:49:49.893Z,98727.20
2017-12-15T00:52:18.220Z,98726.38
2017-12-15T00:54:47.368Z,98731.66
2017-12-15T00:57:16.456Z,98736.05
2017-12-15T00:59:44.824Z,98737.44
2017-12-15T01:02:14.340Z,98744.37
2017-12-15T01:04:42.672Z,98742.64
2017-12-15T01:07:11.756Z,98752.55
2017-12-15T01:09:40.524Z,98758.60
2017-12-15T01:12:09.252Z,98764.23
2017-12-15T01:14:38.344Z,98758.59
2017-12-15T01:17:07.472Z,98763.79
2017-12-15T01:19:35.800Z,98748.58
2017-12-15T01:22:05.860Z,98756.67
2017-12-15T01:24:35.004Z,98747.70
2017-12-15T01:27:03.336Z,98749.55
2017-12-15T01:29:31.660Z,98742.56
2017-12-15T01:32:00.008Z,98744.30
2017-12-15T01:34:28.335Z,98722.57
2017-12-15T01:36:57.084Z,98724.59
2017-12-15T01:39:26.167Z,98727.11
2017-12-15T01:41:54.528Z,98730.08
2017-12-15T01:44:22.916Z,98720.27
2017-12-15T01:46:51.706Z,98712.65
2017-12-15T01:49:20.424Z,98712.87
2017-12-15T01:51:48.784Z,98711.84
2017-12-15T01:54:17.144Z,98702.10
2017-12-15T01:56:45.496Z,98686.80
2017-12-15T01:59:13.858Z,98678.09
2017-12-15T02:01:42.996Z,98682.06
2017-12-15T02:04:11.316Z,98671.63
2017-12-15T02:06:39.625Z,98669.47
2017-12-15T02:09:07.964Z,98661.38
2017-12-15T02:11:36.316Z,98656.84
2017-12-15T02:14:05.438Z,98657.53
2017-12-15T02:16:33.768Z,98654.76
2017-12-15T02:19:02.478Z,98654.06
2017-12-15T02:21:30.835Z,98664.77
2017-12-15T02:23:59.178Z,98676.66
2017-12-15T02:26:28.318Z,98663.33
2017-12-15T02:28:56.650Z,98662.16
2017-12-15T02:31:25.366Z,98665.32
2017-12-15T02:33:53.717Z,98662.83
2017-12-15T02:36:22.840Z,98679.02
2017-12-15T02:38:52.448Z,98682.06
2017-12-15T02:41:21.572Z,98679.47
2017-12-15T02:43:51.296Z,98680.43
2017-12-15T02:46:20.032Z,98676.99
2017-12-15T02:48:48.384Z,98685.70
2017-12-15T02:51:17.127Z,98679.61
2017-12-15T02:53:45.497Z,98681.77
2017-12-15T02:56:13.801Z,98683.91
2017-12-15T02:58:42.123Z,98688.71
2017-12-15T03:01:10.468Z,98697.05
2017-12-15T03:03:39.175Z,98697.53
2017-12-15T03:06:07.527Z,98701.94
2017-12-15T03:08:35.836Z,98704.15
2017-12-15T03:11:04.147Z,98708.12
2017-12-15T03:13:32.487Z,98711.63
2017-12-15T03:16:02.187Z,98713.78
2017-12-15T03:18:31.299Z,98718.11
2017-12-15T03:21:00.048Z,98719.40
2017-12-15T03:23:28.399Z,98715.51
2017-12-15T03:25:57.172Z,98718.88
2017-12-15T03:28:25.931Z,98716.08
2017-12-15T03:30:54.241Z,98716.66
2017-12-15T03:33:22.604Z,98711.86
2017-12-15T03:35:50.927Z,98720.29
2017-12-15T03:38:20.008Z,98712.63
2017-12-15T03:40:48.375Z,98711.52
2017-12-15T03:43:16.695Z,98710.10
2017-12-15T03:45:47.802Z,98708.65
2017-12-15T03:48:16.119Z,98703.02
2017-12-15T03:50:45.935Z,98697.38
2017-12-15T03:53:14.251Z,98685.27
2017-12-15T03:55:42.578Z,98684.70
2017-12-15T03:58:11.711Z,98684.23
2017-12-15T04:00:40.059Z,98689.33
2017-12-15T04:03:09.149Z,98693.68
2017-12-15T04:05:38.273Z,98688.08
2017-12-15T04:08:06.598Z,98695.56
2017-12-15T04:10:34.963Z,98688.07
2017-12-15T04:13:03.297Z,98698.86
2017-12-15T04:15:32.386Z,98692.20
2017-12-15T04:18:02.743Z,98686.82
2017-12-15T04:20:32.647Z,98684.94
2017-12-15T04:23:02.219Z,98687.94
2017-12-15T04:25:32.094Z,98680.36
2017-12-15T04:28:00.887Z,98675.63
2017-12-15T04:30:29.237Z,98674.34
2017-12-15T04:32:57.638Z,98674.00
2017-12-15T04:35:25.954Z,98670.19
2017-12-15T04:37:54.363Z,98672.37
2017-12-15T04:40:24.126Z,98662.73
2017-12-15T04:42:53.823Z,98655.56
2017-12-15T04:45:22.383Z,98656.66
2017-12-15T04:47:50.822Z,98659.91
2017-12-15T04:50:19.139Z,98656.50
2017-12-15T04:52:47.498Z,98656.59
2017-12-15T04:55:16.966Z,98655.20
2017-12-15T04:57:46.102Z,98663.08
2017-12-15T05:00:14.527Z,98659.12
2017-12-15T05:02:43.651Z,98658.89
2017-12-15T05:05:12.015Z,98659.13
2017-12-15T05:07:40.486Z,98664.27
2017-12-15T05:10:09.578Z,98662.77
2017-12-15T05:12:39.479Z,98662.11
2017-12-15T05:15:08.222Z,98659.02
2017-12-15T05:17:36.846Z,98663.31
2017-12-15T05:20:06.052Z,98668.91
2017-12-15T05:22:35.566Z,98660.08
2017-12-15T05:25:05.307Z,98664.78
2017-12-15T05:27:33.726Z,98660.30
2017-12-15T05:30:02.174Z,98659.13
2017-12-15T05:32:30.603Z,98656.70
2017-12-15T05:35:00.494Z,98649.23
2017-12-15T05:37:29.386Z,98643.92
2017-12-15T05:39:57.947Z,98648.00
2017-12-15T05:42:26.543Z,98644.32
2017-12-15T05:44:55.794Z,98636.37
2017-12-15T05:47:25.631Z,98637.39
2017-12-15T05:49:55.239Z,98632.64
2017-12-15T05:52:23.650Z,98623.21
2017-12-15T05:54:52.202Z,98633.27
2017-12-15T05:57:20.654Z,98633.36
2017-12-15T05:59:50.470Z,98639.57
2017-12-15T06:02:19.267Z,98632.76
2017-12-15T06:04:49.043Z,98625.09
2017-12-15T06:07:18.607Z,98635.38
2017-12-15T06:09:48.314Z,98641.91
2017-12-15T06:12:17.615Z,98644.04
2017-12-15T06:14:46.818Z,98646.09
2017-12-15T06:17:15.234Z,98646.47
2017-12-15T06:19:43.746Z,98647.20
2017-12-15T06:22:12.162Z,98649.11
2017-12-15T06:24:41.722Z,98654.42
2017-12-15T06:27:10.982Z,98661.11
2017-12-15T06:29:39.406Z,98653.06
2017-12-15T06:32:09.397Z,98650.57
2017-12-15T06:34:39.310Z,98646.84
2017-12-15T06:37:08.766Z,98650.94
2017-12-15T06:39:39.389Z,98646.42
2017-12-15T06:42:09.077Z,98654.16
2017-12-15T06:44:38.974Z,98650.94
2017-12-15T06:47:07.462Z,98649.44
2017-12-15T06:49:36.370Z,98651.99
2017-12-15T06:52:04.754Z,98652.80
2017-12-15T06:54:33.146Z,98650.63
2017-12-15T06:57:01.482Z,98657.16
2017-12-15T06:59:30.601Z,98658.44
2017-12-15T07:01:58.994Z,98656.66
2017-12-15T07:04:27.336Z,98662.63
2017-12-15T07:06:55.713Z,98663.91
2017-12-15T07:09:24.429Z,98665.02
2017-12-15T07:11:52.798Z,98668.76
2017-12-15T07:14:21.129Z,98669.09
2017-12-15T07:16:49.441Z,98675.04
2017-12-15T07:19:20.600Z,98673.14
2017-12-15T07:21:50.693Z,98676.12
2017-12-15T07:24:19.045Z,98673.91
2017-12-15T07:26:47.764Z,98673.88
2017-12-15T07:29:16.895Z,98672.48
2017-12-15T07:31:45.297Z,98679.36
2017-12-15T07:34:15.153Z,98681.34
2017-12-15T07:36:45.149Z,98682.50
2017-12-15T07:39:13.581Z,98682.44
2017-12-15T07:41:42.701Z,98682.48
2017-12-15T07:44:11.061Z,98688.52
2017-12-15T07:46:39.769Z,98685.77
2017-12-15T07:49:08.254Z,98693.97
2017-12-15T07:51:36.747Z,98697.48
2017-12-15T07:54:05.093Z,98689.52
2017-12-15T07:56:33.401Z,98685.94
2017-12-15T07:59:02.191Z,98686.68
2017-12-15T08:01:30.525Z,98683.46
2017-12-15T08:03:59.657Z,98684.93
2017-12-15T08:06:28.139Z,98692.25
2017-12-15T08:08:57.896Z,98692.01
2017-12-15T08:11:27.021Z,98697.20
2017-12-15T08:13:55.743Z,98700.73
2017-12-15T08:16:25.493Z,98702.43
2017-12-15T08:18:53.843Z,98704.83
2017-12-15T08:21:22.972Z,98705.27
2017-12-15T08:23:51.341Z,98707.02
2017-12-15T08:26:20.101Z,98719.91
2017-12-15T08:28:49.549Z,98712.73
2017-12-15T08:31:17.905Z,98717.06
2017-12-15T08:33:46.628Z,98718.42
2017-12-15T08:36:15.007Z,98720.23
2017-12-15T08:38:43.361Z,98719.14
2017-12-15T08:41:11.701Z,98722.09
2017-12-15T08:43:42.525Z,98726.33
2017-12-15T08:46:12.123Z,98730.66
2017-12-15T08:48:40.913Z,98739.27
2017-12-15T08:51:09.277Z,98737.45
2017-12-15T08:53:37.597Z,98743.07
2017-12-15T08:56:06.711Z,98748.52
2017-12-15T08:58:35.482Z,98752.41
2017-12-15T09:01:05.316Z,98753.22
2017-12-15T09:03:34.441Z,98754.88
2017-12-15T09:06:02.785Z,98761.08
2017-12-15T09:08:31.137Z,98768.06
2017-12-15T09:11:00.226Z,98774.32
2017-12-15T09:13:29.360Z,98775.94
2017-12-15T09:15:58.076Z,98780.19
2017-12-15T09:18:28.025Z,98787.94
2017-12-15T09:20:57.118Z,98790.16
2017-12-15T09:23:26.261Z,98787.02
2017-12-15T09:25:54.621Z,98784.81
2017-12-15T09:28:22.968Z,98789.25
2017-12-15T09:30:52.075Z,98785.09
2017-12-15T09:33:21.182Z,98791.98
2017-12-15T09:35:49.976Z,98788.91
2017-12-15T09:38:18.315Z,98790.65
2017-12-15T09:40:46.641Z,98794.41
2017-12-15T09:43:14.991Z,98795.59
2017-12-15T09:45:44.823Z,98803.47
2017-12-15T09:48:14.316Z,98806.04
2017-12-15T09:50:42.647Z,98812.21
2017-12-15T09:53:11.117Z,98805.56
2017-12-15T09:55:39.442Z,98810.16
2017-12-15T09:58:08.545Z,98812.70
2017-12-15T10:00:37.672Z,98811.20
2017-12-15T10:03:06.017Z,98816.84
2017-12-15T10:05:34.384Z,98816.27
2017-12-15T10:08:03.106Z,98818.54
2017-12-15T10:10:31.473Z,98823.64
2017-12-15T10:13:04.768Z,98832.41
2017-12-15T10:15:33.156Z,98826.38
2017-12-15T10:18:01.535Z,98824.89
2017-12-15T10:20:29.857Z,98831.86
2017-12-15T10:22:58.232Z,98827.19
2017-12-15T10:25:28.130Z,98835.98
2017-12-15T10:27:56.444Z,98832.72
2017-12-15T10:30:25.173Z,98834.10
2017-12-15T10:32:53.590Z,98839.47
2017-12-15T10:35:21.892Z,98848.94
2017-12-15T10:37:50.676Z,98848.89
2017-12-15T10:40:19.770Z,98859.13
2017-12-15T10:42:48.176Z,98855.44
2017-12-15T10:45:16.916Z,98863.16
2017-12-15T10:47:46.418Z,98866.54
2017-12-15T10:50:14.780Z,98868.49
2017-12-15T10:52:43.129Z,98868.73
2017-12-15T10:55:11.881Z,98873.45
2017-12-15T10:57:41.066Z,98889.45
2017-12-15T11:00:10.192Z,98886.13
2017-12-15T11:02:38.539Z,98896.38
2017-12-15T11:05:08.064Z,98898.90
2017-12-15T11:07:37.194Z,98906.02
2017-12-15T11:10:05.924Z,98904.39
2017-12-15T11:12:40.812Z,98912.31
2017-12-15T11:15:09.917Z,98909.44
2017-12-15T11:17:39.042Z,98909.28
2017-12-15T11:20:07.787Z,98912.91
2017-12-15T11:22:36.116Z,98911.19
2017-12-15T11:25:05.236Z,98929.27
2017-12-15T11:27:33.575Z,98927.86
2017-12-15T11:30:01.974Z,98928.03
2017-12-15T11:32:31.076Z,98929.18
2017-12-15T11:34:59.808Z,98937.68
2017-12-15T11:37:28.179Z,98939.82
2017-12-15T11:39:56.500Z,98941.25
2017-12-15T11:42:26.212Z,98940.16
2017-12-15T11:44:54.579Z,98945.94
2017-12-15T11:47:23.700Z,98953.27
2017-12-15T11:49:53.596Z,98949.46
2017-12-15T11:52:21.944Z,98952.48
2017-12-15T11:54:50.272Z,98949.44
2017-12-15T11:57:19.761Z,98956.02
2017-12-15T11:59:50.551Z,98962.51
2017-12-15T12:05:34.636Z,98968.48
2017-12-15T12:08:18.051Z,98971.46
2017-12-15T12:14:01.013Z,98972.72
2017-12-15T12:16:30.132Z,98970.20
2017-12-15T12:19:05.602Z,98979.67
2017-12-15T12:21:44.219Z,98980.01
2017-12-15T12:24:13.440Z,98987.73
2017-12-15T12:26:43.919Z,98989.42
2017-12-15T12:29:13.091Z,98991.50
2017-12-15T12:31:41.863Z,98995.53
2017-12-15T12:34:12.147Z,99000.98
2017-12-15T12:36:40.509Z,99000.95
2017-12-15T12:39:10.401Z,99000.59
2017-12-15T12:41:40.292Z,99008.55
2017-12-15T12:44:09.963Z,99010.72
2017-12-15T12:46:39.220Z,99013.83
2017-12-15T12:49:07.614Z,99007.99
2017-12-15T12:51:38.076Z,99021.92
2017-12-15T12:54:10.471Z,99021.12
2017-12-15T12:56:40.079Z,99031.34
2017-12-15T12:59:09.171Z,99038.59
2017-12-15T13:01:39.183Z,99047.42
2017-12-15T13:04:09.341Z,99047.39
2017-12-15T13:06:37.722Z,99053.67
2017-12-15T13:09:17.137Z,99054.70
2017-12-15T13:11:48.750Z,99062.19
2017-12-15T13:14:17.110Z,99067.83
2017-12-15T13:16:45.707Z,99079.44
2017-12-15T13:19:14.435Z,99076.59
2017-12-15T13:21:43.191Z,99088.80
2017-12-15T13:24:12.595Z,99094.72
2017-12-15T13:26:41.318Z,99097.61
2017-12-15T13:29:11.126Z,99099.76
2017-12-15T13:31:45.683Z,99095.95
2017-12-15T13:34:15.302Z,99102.29
2017-12-15T13:36:45.058Z,99102.28
2017-12-15T13:39:16.356Z,99107.41
2017-12-15T13:41:46.017Z,99119.19
2017-12-15T13:44:16.142Z,99106.03
2017-12-15T13:46:45.462Z,99119.75
2017-12-15T13:49:14.967Z,99134.67
2017-12-15T13:51:56.341Z,99135.80
2017-12-15T13:54:27.154Z,99137.61
2017-12-15T13:56:56.106Z,99140.88
2017-12-15T13:59:26.184Z,99143.37
2017-12-15T14:01:56.004Z,99142.92
2017-12-15T14:04:26.831Z,99146.78
2017-12-15T14:06:55.395Z,99147.31
2017-12-15T14:09:23.818Z,99144.38
2017-12-15T14:11:52.998Z,99145.59
2017-12-15T14:14:21.419Z,99154.78
2017-12-15T14:16:50.151Z,99160.14
2017-12-15T14:19:18.535Z,99168.83
2017-12-15T14:21:51.450Z,99164.51
2017-12-15T14:24:21.140Z,99163.13
2017-12-15T14:26:50.315Z,99167.86
2017-12-15T14:29:20.159Z,99170.24
2017-12-15T14:31:49.379Z,99174.31
2017-12-15T14:34:18.510Z,99182.61
2017-12-15T14:36:46.911Z,99184.86
2017-12-15T14:39:15.566Z,99178.75
2017-12-15T14:41:43.970Z,99174.42
2017-12-15T14:44:13.056Z,99172.73
2017-12-15T14:46:42.883Z,99182.25
2017-12-15T14:49:13.426Z,99181.05
2017-12-15T14:51:42.265Z,99186.44
2017-12-15T14:54:11.821Z,99199.24
2017-12-15T14:56:41.879Z,99194.11
2017-12-15T14:59:11.466Z,99203.72
2017-12-15T15:01:41.226Z,99209.41
2017-12-15T15:04:11.151Z,99205.36
2017-12-15T15:06:40.849Z,99212.15
2017-12-15T15:09:10.702Z,99220.81
2017-12-15T15:11:40.384Z,99208.63
2017-12-15T15:14:10.106Z,99219.44
2017-12-15T15:16:39.781Z,99226.31
2017-12-15T15:19:08.149Z,99226.64
2017-12-15T15:21:36.478Z,99229.67
2017-12-15T15:24:05.990Z,99228.30
2017-12-15T15:26:35.099Z,99228.71
2017-12-15T15:29:03.435Z,99230.92
2017-12-15T15:31:31.794Z,99238.70
2017-12-15T15:34:01.533Z,99248.52
2017-12-15T15:36:30.649Z,99250.15
2017-12-15T15:38:59.441Z,99246.02
2017-12-15T15:41:29.134Z,99252.44
2017-12-15T15:43:58.297Z,99252.45
2017-12-15T15:46:26.671Z,99242.40
2017-12-15T15:48:55.397Z,99242.77
2017-12-15T15:51:24.537Z,99249.72
2017-12-15T15:53:54.078Z,99252.77
2017-12-15T15:56:23.801Z,99244.09
2017-12-15T15:58:53.522Z,99246.80
2017-12-15T16:01:22.755Z,99247.78
2017-12-15T16:03:51.163Z,99246.36
2017-12-15T16:06:19.510Z,99250.30
2017-12-15T16:08:47.874Z,99255.87
2017-12-15T16:11:16.230Z,99254.92
2017-12-15T16:13:44.987Z,99252.69
2017-12-15T16:16:13.358Z,99261.41
2017-12-15T16:18:41.729Z,99250.62
2017-12-15T16:21:10.068Z,99248.42
2017-12-15T16:23:38.439Z,99248.22
2017-12-15T16:26:08.139Z,99244.63
2017-12-15T16:28:37.241Z,99249.52
2017-12-15T16:31:06.378Z,99247.05
2017-12-15T16:33:35.569Z,99255.32
2017-12-15T16:36:05.705Z,99258.87
2017-12-15T16:38:34.474Z,99268.22
2017-12-15T16:41:02.886Z,99264.41
2017-12-15T16:43:31.244Z,99265.31
2017-12-15T16:46:00.368Z,99261.46
2017-12-15T16:48:29.592Z,99270.59
2017-12-15T16:50:58.450Z,99265.40
2017-12-15T16:53:27.950Z,99269.75
2017-12-15T16:55:56.741Z,99260.76
2017-12-15T16:58:25.777Z,99261.38
2017-12-15T17:00:54.946Z,99261.16
2017-12-15T17:03:35.489Z,99269.50
2017-12-15T17:06:03.893Z,99276.59
2017-12-15T17:08:34.836Z,99283.55
2017-12-15T17:11:05.616Z,99278.78
2017-12-15T17:13:35.181Z,99278.34
2017-12-15T17:16:05.216Z,99280.11
2017-12-15T17:18:34.133Z,99280.12
2017-12-15T17:21:09.926Z,99276.22
2017-12-15T17:23:39.744Z,99280.12
2017-12-15T17:26:09.737Z,99285.78
2017-12-15T17:28:41.410Z,99289.31
2017-12-15T17:31:10.128Z,99289.80
2017-12-15T17:33:39.682Z,99291.11
2017-12-15T17:36:10.012Z,99286.81
2017-12-15T17:38:39.850Z,99295.97
2017-12-15T17:41:09.205Z,99295.97
2017-12-15T17:43:39.738Z,99293.84
2017-12-15T17:46:09.493Z,99298.61
2017-12-15T17:48:40.534Z,99302.53
2017-12-15T17:51:09.696Z,99304.27
2017-12-15T17:53:39.032Z,99310.74
2017-12-15T17:56:08.256Z,99305.48
2017-12-15T17:58:39.138Z,99315.44
2017-12-15T18:01:10.857Z,99314.52
2017-12-15T18:03:40.164Z,99316.20
2017-12-15T18:06:09.661Z,99320.05
2017-12-15T18:08:38.263Z,99316.97
2017-12-15T18:11:07.020Z,99319.52
2017-12-15T18:13:35.416Z,99323.84
2017-12-15T18:16:03.853Z,99324.28
2017-12-15T18:18:32.984Z,99320.80
2017-12-15T18:21:01.351Z,99322.55
2017-12-15T18:23:29.690Z,99328.59
2017-12-15T18:25:58.840Z,99327.27
2017-12-15T18:28:27.276Z,99325.53
2017-12-15T18:30:56.796Z,99329.39
2017-12-15T18:33:27.045Z,99325.47
2017-12-15T18:35:55.464Z,99333.36
2017-12-15T18:38:24.227Z,99333.31
2017-12-15T18:40:53.926Z,99335.46
2017-12-15T18:43:22.318Z,99344.59
2017-12-15T18:45:51.811Z,99342.92
2017-12-15T18:48:21.864Z,99347.27
2017-12-15T18:50:52.138Z,99350.75
2017-12-15T18:53:22.243Z,99349.02
2017-12-15T18:55:50.633Z,99349.94
2017-12-15T18:58:19.127Z,99356.08
2017-12-15T19:00:48.528Z,99353.53
2017-12-15T19:03:17.724Z,99357.97
2017-12-15T19:05:51.580Z,99356.27
2017-12-15T19:08:21.115Z,99357.62
2017-12-15T19:10:49.575Z,99367.64
2017-12-15T19:13:18.365Z,99365.50
2017-12-15T19:15:48.127Z,99366.41
2017-12-15T19:18:16.628Z,99383.36
2017-12-15T19:20:47.791Z,99381.65
2017-12-15T19:23:17.400Z,99379.04
2017-12-15T19:25:45.890Z,99373.86
2017-12-15T19:28:15.089Z,99379.08
2017-12-15T19:30:44.477Z,99384.27
2017-12-15T19:33:12.874Z,99392.11
2017-12-15T19:35:41.995Z,99398.19
2017-12-15T19:38:12.745Z,99400.80
2017-12-15T19:40:41.103Z,99399.91
2017-12-15T19:43:10.211Z,99401.66
2017-12-15T19:45:41.918Z,99405.13
2017-12-15T19:48:10.456Z,99415.11
2017-12-15T19:50:39.767Z,99416.41
2017-12-15T19:53:08.170Z,99416.39
2017-12-15T19:55:36.616Z,99419.39
2017-12-15T19:58:05.859Z,99420.27
2017-12-15T20:00:35.257Z,99421.57
2017-12-15T20:03:04.469Z,99417.65
2017-12-15T20:05:33.016Z,99419.38
2017-12-15T20:08:03.736Z,99422.84
2017-12-15T20:10:32.851Z,99421.09
2017-12-15T20:13:02.455Z,99422.39
2017-12-15T20:15:34.983Z,99417.20
2017-12-15T20:18:03.489Z,99418.06
2017-12-15T20:20:32.296Z,99419.80
2017-12-15T20:23:01.563Z,99421.52
2017-12-15T20:25:31.163Z,99424.11
2017-12-15T20:28:00.052Z,99421.52
2017-12-15T20:30:29.251Z,99426.69
2017-12-15T20:32:58.387Z,99438.38
2017-12-15T20:35:42.447Z,99445.73
2017-12-15T20:38:11.763Z,99451.35
2017-12-15T20:40:40.754Z,99446.59
2017-12-15T20:43:11.981Z,99441.83
2017-12-15T20:45:41.974Z,99446.58
2017-12-15T20:48:12.413Z,99451.31
2017-12-15T20:50:40.887Z,99449.52
2017-12-15T20:53:09.699Z,99449.95
2017-12-15T20:55:41.218Z,99451.67
2017-12-15T20:58:09.641Z,99445.16
2017-12-15T21:00:39.259Z,99446.45
2017-12-15T21:03:08.367Z,99448.18
2017-12-15T21:05:38.084Z,99448.62
2017-12-15T21:08:06.559Z,99454.25
2017-12-15T21:10:37.207Z,99449.07
2017-12-15T21:13:05.591Z,99455.60
2017-12-15T21:15:37.423Z,99451.72
2017-12-15T21:18:06.245Z,99456.95
2017-12-15T21:20:36.354Z,99457.89
2017-12-15T21:23:05.799Z,99452.72
2017-12-15T21:25:37.275Z,99451.91
2017-12-15T21:28:05.887Z,99455.38
2017-12-15T21:30:38.847Z,99448.02
2017-12-15T21:33:07.767Z,99456.30
2017-12-15T21:35:36.919Z,99462.38
2017-12-15T21:38:07.818Z,99463.67
2017-12-15T21:40:36.218Z,99468.03
2017-12-15T21:43:06.235Z,99473.22
2017-12-15T21:45:35.056Z,99476.73
2017-12-15T21:48:04.826Z,99476.73
2017-12-15T21:50:34.750Z,99468.05
2017-12-15T21:53:03.962Z,99477.15
2017-12-15T21:55:32.731Z,99478.02
2017-12-15T21:58:03.426Z,99466.73
2017-12-15T22:00:33.062Z,99473.23
2017-12-15T22:03:01.463Z,99477.16
2017-12-15T22:05:30.616Z,99481.92
2017-12-15T22:07:59.070Z,99475.00
2017-12-15T22:10:27.518Z,99478.45
2017-12-15T22:12:56.670Z,99484.52
2017-12-15T22:15:25.016Z,99482.80
2017-12-15T22:17:53.765Z,99482.80
2017-12-15T22:20:24.402Z,99488.42
2017-12-15T22:22:52.738Z,99485.41
2017-12-15T22:25:22.963Z,99484.09
2017-12-15T22:27:51.330Z,99484.09
2017-12-15T22:30:19.706Z,99491.92
2017-12-15T22:32:48.052Z,99490.60
2017-12-15T22:35:17.234Z,99496.23
2017-12-15T22:37:46.383Z,99497.53
2017-12-15T22:40:15.125Z,99500.11
2017-12-15T22:42:44.315Z,99506.16
2017-12-15T22:45:12.651Z,99497.48
2017-12-15T22:47:41.792Z,99492.25
2017-12-15T22:50:11.266Z,99498.31
2017-12-15T22:52:39.640Z,99495.27
2017-12-15T22:55:08.382Z,99498.71
2017-12-15T22:57:36.750Z,99506.48
2017-12-15T23:00:06.586Z,99508.59
2017-12-15T23:02:34.962Z,99512.45
2017-12-15T23:05:04.109Z,99518.47
2017-12-15T23:07:32.458Z,99524.13
2017-12-15T23:10:00.786Z,99524.10
2017-12-15T23:12:29.918Z,99530.16
2017-12-15T23:14:59.798Z,99531.86
2017-12-15T23:17:28.942Z,99534.02
2017-12-15T23:19:57.314Z,99533.55
2017-12-15T23:22:25.689Z,99543.94
2017-12-15T23:24:54.442Z,99544.34
2017-12-15T23:27:23.602Z,99546.48
2017-12-15T23:29:51.948Z,99540.05
2017-12-15T23:32:20.322Z,99540.89
2017-12-15T23:34:49.446Z,99548.28
2017-12-15T23:37:17.843Z,99546.48
2017-12-15T23:39:46.201Z,99550.34
2017-12-15T23:42:14.633Z,99551.23
2017-12-15T23:44:43.017Z,99554.69
2017-12-15T23:47:12.131Z,99560.77
2017-12-15T23:49:41.651Z,99559.06
2017-12-15T23:52:10.421Z,99557.80
2017-12-15T23:54:56.574Z,99563.91
2017-12-15T23:57:25.729Z,99560.96
2017-12-15T23:59:55.234Z,99560.63
